Time;durP1;ratioP1;P1;durP2;ratioP2;P2;SDS_P1;SDS_P2;PMS_P1;PMS_P2;Temp;Humidity;BMP_temperature;BMP_pressure;BME280_temperature;BME280_humidity;BME280_pressure;Samples;Min_cycle;Max_cycle;Signal;HPM_P1;HPM_P2
2023/05/14 00:01:34;;;;;;;14.93;11.47;;;16.20;99.90;;;;;;4994111;28;20272;-82
2023/05/14 00:04:01;;;;;;;13.30;11.40;;;16.30;99.90;;;;;;5009233;28;20182;-86
2023/05/14 00:06:26;;;;;;;13.07;11.60;;;16.20;99.90;;;;;;5009232;28;20460;-82
2023/05/14 00:08:52;;;;;;;19.03;11.90;;;16.20;99.90;;;;;;4994204;28;20477;-86
2023/05/14 00:11:17;;;;;;;12.97;11.67;;;16.10;99.90;;;;;;5009130;28;20657;-86
2023/05/14 00:13:43;;;;;;;13.67;11.83;;;16.10;99.90;;;;;;4994313;28;20180;-86
2023/05/14 00:16:09;;;;;;;14.23;11.30;;;16.20;99.90;;;;;;4992647;28;20215;-82
2023/05/14 00:18:34;;;;;;;12.70;11.40;;;16.20;99.90;;;;;;4992825;28;20187;-86
2023/05/14 00:21:00;;;;;;;12.60;10.80;;;16.10;99.90;;;;;;4992692;28;20246;-82
2023/05/14 00:23:26;;;;;;;12.37;11.10;;;16.10;99.90;;;;;;4992800;28;20191;-86
2023/05/14 00:25:51;;;;;;;12.60;11.30;;;16.10;99.90;;;;;;4994010;28;20204;-86
2023/05/14 00:28:17;;;;;;;12.60;11.40;;;16.00;99.90;;;;;;5008868;28;20215;-85
2023/05/14 00:30:43;;;;;;;12.93;11.53;;;15.90;99.90;;;;;;4993134;28;20657;-82
2023/05/14 00:33:09;;;;;;;13.27;11.97;;;16.00;99.90;;;;;;4994779;28;20199;-86
2023/05/14 00:35:34;;;;;;;15.37;12.30;;;16.00;99.90;;;;;;4994629;28;20826;-85
2023/05/14 00:38:01;;;;;;;12.87;11.57;;;16.00;99.90;;;;;;4992638;28;20180;-82
2023/05/14 00:40:27;;;;;;;15.07;12.93;;;15.90;99.90;;;;;;4992570;28;20208;-86
2023/05/14 00:42:54;;;;;;;12.50;11.30;;;16.00;99.90;;;;;;4993851;28;20488;-85
2023/05/14 00:45:20;;;;;;;15.03;13.40;;;16.00;99.90;;;;;;4993874;28;20959;-82
2023/05/14 00:47:46;;;;;;;16.67;12.80;;;15.90;99.90;;;;;;4993716;28;20543;-85
2023/05/14 00:50:14;;;;;;;13.93;12.10;;;15.90;99.90;;;;;;5008823;28;20204;-85
2023/05/14 00:52:40;;;;;;;15.23;13.63;;;15.80;99.90;;;;;;4992856;28;20416;-82
2023/05/14 00:55:07;;;;;;;16.03;14.27;;;15.80;99.90;;;;;;5010479;28;20441;-85
2023/05/14 00:57:36;;;;;;;14.10;12.70;;;15.80;99.90;;;;;;4996461;28;20417;-85
2023/05/14 01:00:03;;;;;;;13.80;12.40;;;15.80;99.90;;;;;;4995944;28;20445;-82
2023/05/14 01:02:28;;;;;;;13.23;12.03;;;15.80;99.90;;;;;;4997153;28;20409;-82
2023/05/14 01:04:55;;;;;;;14.80;13.00;;;15.80;99.90;;;;;;5011934;28;20477;-82
2023/05/14 01:07:31;;;;;;;15.10;12.80;;;15.80;99.90;;;;;;4995700;28;20302;-84
2023/05/14 01:10:02;;;;;;;17.10;14.47;;;15.70;99.90;;;;;;4997530;28;20449;-82
2023/05/14 01:12:56;;;;;;;14.53;13.13;;;15.70;99.90;;;;;;4994786;28;20517;-85
2023/05/14 01:15:30;;;;;;;15.77;12.83;;;15.70;99.90;;;;;;5010314;28;21072;-87
2023/05/14 01:18:00;;;;;;;14.60;11.93;;;15.60;99.90;;;;;;4993579;28;20438;-85
2023/05/14 01:20:26;;;;;;;13.90;12.30;;;15.60;99.90;;;;;;4995156;28;20429;-82
2023/05/14 01:22:52;;;;;;;14.43;12.93;;;15.70;99.90;;;;;;4994768;28;20476;-82
2023/05/14 01:25:18;;;;;;;14.20;12.57;;;15.60;99.90;;;;;;4994432;28;20242;-85
2023/05/14 01:27:55;;;;;;;14.10;12.70;;;15.70;99.90;;;;;;5010358;28;20461;-82
2023/05/14 01:30:36;;;;;;;13.13;11.80;;;15.60;99.90;;;;;;4995343;28;20449;-85
2023/05/14 01:33:10;;;;;;;15.47;12.43;;;15.60;99.90;;;;;;4996668;28;20495;-82
2023/05/14 01:35:36;;;;;;;19.97;14.03;;;15.60;99.90;;;;;;5011648;28;20429;-82
2023/05/14 01:38:06;;;;;;;14.10;12.63;;;15.60;99.90;;;;;;4996485;28;20904;-82
2023/05/14 01:40:32;;;;;;;18.07;13.07;;;15.60;99.90;;;;;;5011594;28;20437;-85
2023/05/14 01:42:59;;;;;;;14.40;12.90;;;15.50;99.90;;;;;;4996415;28;20440;-82
2023/05/14 01:45:25;;;;;;;14.30;12.57;;;15.60;99.90;;;;;;4996530;28;20464;-82
2023/05/14 01:47:52;;;;;;;16.27;12.70;;;15.50;99.90;;;;;;5011303;28;20519;-82
2023/05/14 01:50:18;;;;;;;14.87;13.27;;;15.60;99.90;;;;;;4996410;28;20464;-82
2023/05/14 01:52:44;;;;;;;14.40;12.73;;;15.60;99.90;;;;;;4995024;28;20927;-82
2023/05/14 01:55:10;;;;;;;15.10;13.50;;;15.60;99.90;;;;;;4996206;28;20492;-85
2023/05/14 01:57:36;;;;;;;15.73;13.30;;;15.60;99.90;;;;;;4996145;28;20656;-85
2023/05/14 02:00:03;;;;;;;16.93;12.60;;;15.50;99.90;;;;;;4995956;28;20798;-82
2023/05/14 02:02:28;;;;;;;16.43;13.30;;;15.50;99.90;;;;;;4996097;28;20202;-83
2023/05/14 02:04:54;;;;;;;15.90;12.90;;;15.50;99.90;;;;;;4996211;28;20566;-84
2023/05/14 02:07:19;;;;;;;15.40;13.57;;;15.50;99.90;;;;;;5010232;28;20639;-84
2023/05/14 02:09:45;;;;;;;14.90;12.60;;;15.50;99.90;;;;;;5011176;28;20638;-85
2023/05/14 02:12:11;;;;;;;14.57;13.17;;;15.40;99.90;;;;;;4995963;28;20176;-82
2023/05/14 02:14:37;;;;;;;14.67;12.90;;;15.50;99.90;;;;;;4996209;28;20684;-82
2023/05/14 02:17:02;;;;;;;14.83;12.40;;;15.50;99.90;;;;;;4995808;28;20187;-85
2023/05/14 02:19:29;;;;;;;15.17;12.70;;;15.50;99.90;;;;;;4996246;28;20915;-82
2023/05/14 02:21:54;;;;;;;14.80;13.20;;;15.50;99.90;;;;;;4995704;28;20218;-82
2023/05/14 02:24:21;;;;;;;15.47;13.17;;;15.50;99.90;;;;;;4996162;28;20419;-86
2023/05/14 02:26:47;;;;;;;14.80;12.80;;;15.50;99.90;;;;;;4994313;28;20199;-85
2023/05/14 02:29:13;;;;;;;16.47;13.57;;;15.50;99.90;;;;;;4995823;28;20480;-82
2023/05/14 02:31:39;;;;;;;14.73;13.23;;;15.30;99.90;;;;;;5010574;28;20204;-86
2023/05/14 02:34:07;;;;;;;14.77;13.03;;;15.40;99.90;;;;;;4995798;28;20184;-86
2023/05/14 02:36:33;;;;;;;14.80;13.20;;;15.50;99.90;;;;;;4995424;28;20192;-86
2023/05/14 02:39:03;;;;;;;16.90;13.33;;;15.50;99.90;;;;;;4995647;28;20444;-86
2023/05/14 02:41:29;;;;;;;14.63;13.23;;;15.50;99.90;;;;;;4995688;28;20196;-85
2023/05/14 02:43:54;;;;;;;14.70;12.77;;;15.40;99.90;;;;;;4994243;28;20436;-85
2023/05/14 02:46:20;;;;;;;17.60;12.70;;;15.40;99.90;;;;;;4995348;28;20192;-85
2023/05/14 02:48:46;;;;;;;16.43;13.63;;;15.50;99.90;;;;;;4993883;28;20278;-86
2023/05/14 02:51:11;;;;;;;18.40;14.87;;;15.50;99.90;;;;;;5010219;28;20408;-86
2023/05/14 02:53:37;;;;;;;17.50;13.50;;;15.50;99.90;;;;;;4995384;28;20529;-85
2023/05/14 02:56:06;;;;;;;13.27;11.83;;;15.50;99.90;;;;;;4993897;28;20200;-82
2023/05/14 02:58:32;;;;;;;14.07;11.30;;;15.50;99.90;;;;;;4994121;28;20246;-85
2023/05/14 03:00:58;;;;;;;14.53;12.93;;;15.50;99.90;;;;;;4995918;28;20433;-82
2023/05/14 03:03:24;;;;;;;15.13;13.17;;;15.40;99.90;;;;;;5010642;28;20433;-88
2023/05/14 03:05:49;;;;;;;15.07;13.20;;;15.40;99.90;;;;;;4994185;28;20728;-84
2023/05/14 03:08:15;;;;;;;15.30;13.70;;;15.50;99.90;;;;;;4994762;28;20294;-82
2023/05/14 03:10:41;;;;;;;15.97;13.03;;;15.50;99.90;;;;;;4994798;28;20203;-82
2023/05/14 03:13:06;;;;;;;14.63;12.87;;;15.50;99.90;;;;;;5009723;28;20198;-83
2023/05/14 03:15:32;;;;;;;13.87;12.47;;;15.50;99.90;;;;;;4994755;28;20204;-86
2023/05/14 03:17:57;;;;;;;16.47;13.37;;;15.50;99.90;;;;;;4994299;28;20645;-86
2023/05/14 03:20:24;;;;;;;14.90;13.40;;;15.50;99.90;;;;;;4994610;28;20256;-82
2023/05/14 03:22:50;;;;;;;13.20;11.77;;;15.50;99.90;;;;;;4993377;28;20175;-85
2023/05/14 03:25:16;;;;;;;14.33;12.60;;;15.40;99.90;;;;;;4994584;28;20559;-82
2023/05/14 03:27:42;;;;;;;14.50;12.93;;;15.50;99.90;;;;;;4993387;28;20552;-82
2023/05/14 03:30:08;;;;;;;15.30;13.40;;;15.50;99.90;;;;;;4994526;28;20200;-86
2023/05/14 03:32:34;;;;;;;16.73;13.20;;;15.50;99.90;;;;;;5009611;28;20182;-82
2023/05/14 03:34:59;;;;;;;14.03;12.60;;;15.40;99.90;;;;;;5009311;28;20544;-82
2023/05/14 03:37:25;;;;;;;18.87;12.60;;;15.50;99.90;;;;;;5009592;28;20186;-82
2023/05/14 03:39:51;;;;;;;14.20;12.70;;;15.50;99.90;;;;;;4994820;28;20184;-86
2023/05/14 03:42:16;;;;;;;16.00;12.20;;;15.40;99.90;;;;;;4993219;28;20207;-85
2023/05/14 03:44:42;;;;;;;13.30;11.90;;;15.40;99.90;;;;;;4993374;28;20184;-82
2023/05/14 03:47:07;;;;;;;20.93;14.10;;;15.40;99.90;;;;;;5009309;28;20190;-82
2023/05/14 03:49:33;;;;;;;15.63;11.37;;;15.40;99.90;;;;;;5009524;28;20175;-82
2023/05/14 03:51:59;;;;;;;14.27;11.80;;;15.40;99.90;;;;;;4994292;28;20178;-82
2023/05/14 03:54:25;;;;;;;16.93;12.57;;;15.40;99.90;;;;;;4992999;28;20430;-86
2023/05/14 03:56:51;;;;;;;13.57;11.97;;;15.40;99.90;;;;;;4994322;28;20218;-85
2023/05/14 03:59:17;;;;;;;16.13;13.03;;;15.30;99.90;;;;;;4994640;28;20505;-86
2023/05/14 04:01:43;;;;;;;16.43;12.77;;;15.40;99.90;;;;;;4994162;28;20623;-82
2023/05/14 04:04:09;;;;;;;13.07;11.77;;;15.30;99.90;;;;;;5009255;28;20274;-86
2023/05/14 04:06:35;;;;;;;13.47;12.13;;;15.40;99.90;;;;;;4993915;28;20506;-86
2023/05/14 04:09:01;;;;;;;13.50;12.10;;;15.40;99.90;;;;;;5009277;28;21015;-84
2023/05/14 04:11:27;;;;;;;12.50;11.30;;;15.40;99.90;;;;;;4992857;28;20791;-86
2023/05/14 04:13:52;;;;;;;11.73;10.03;;;15.40;99.90;;;;;;5009423;28;20482;-83
2023/05/14 04:16:18;;;;;;;13.90;12.13;;;15.40;99.90;;;;;;5009243;28;20234;-86
2023/05/14 04:18:44;;;;;;;12.83;11.53;;;15.40;99.90;;;;;;4994372;28;20191;-82
2023/05/14 04:21:10;;;;;;;12.63;11.33;;;15.40;99.90;;;;;;4994101;28;20196;-87
2023/05/14 04:23:36;;;;;;;12.07;10.60;;;15.40;99.90;;;;;;4993897;28;20787;-84
2023/05/14 04:26:02;;;;;;;13.73;10.30;;;15.40;99.90;;;;;;4993902;28;20425;-86
2023/05/14 04:28:27;;;;;;;12.37;11.07;;;15.40;99.90;;;;;;4994024;28;20226;-81
2023/05/14 04:30:54;;;;;;;14.80;11.50;;;15.40;99.90;;;;;;4997532;28;20421;-81
2023/05/14 04:33:19;;;;;;;11.83;10.60;;;15.40;99.90;;;;;;4998022;28;20169;-81
2023/05/14 04:35:45;;;;;;;13.57;12.23;;;15.40;99.90;;;;;;4997670;28;21014;-82
2023/05/14 04:38:12;;;;;;;11.43;10.23;;;15.30;99.90;;;;;;4996548;28;20195;-81
2023/05/14 04:40:38;;;;;;;16.50;10.93;;;15.30;99.90;;;;;;4997592;28;20437;-86
2023/05/14 04:43:04;;;;;;;11.03;9.97;;;15.30;99.90;;;;;;4997612;28;20431;-81
2023/05/14 04:45:31;;;;;;;10.70;9.70;;;15.20;99.90;;;;;;4996339;28;20615;-86
2023/05/14 04:47:56;;;;;;;10.67;9.57;;;15.20;99.90;;;;;;4997280;28;20319;-81
2023/05/14 04:50:22;;;;;;;8.90;7.90;;;15.20;99.90;;;;;;4997626;28;20986;-86
2023/05/14 04:52:48;;;;;;;10.57;8.60;;;15.10;99.90;;;;;;4997363;28;20175;-87
2023/05/14 04:55:13;;;;;;;9.07;7.30;;;15.10;99.90;;;;;;4997440;28;20206;-86
2023/05/14 04:57:39;;;;;;;8.20;7.40;;;15.10;99.90;;;;;;4997251;28;20168;-85
2023/05/14 05:00:06;;;;;;;8.40;7.13;;;15.10;99.90;;;;;;4997201;28;20227;-85
2023/05/14 05:02:33;;;;;;;8.03;7.33;;;15.00;99.90;;;;;;5012482;28;20172;-85
2023/05/14 05:04:59;;;;;;;8.70;7.43;;;15.10;99.90;;;;;;4997066;28;20948;-85
2023/05/14 05:07:25;;;;;;;8.50;7.63;;;15.10;99.90;;;;;;4995833;28;20493;-85
2023/05/14 05:09:50;;;;;;;7.70;6.93;;;15.10;99.90;;;;;;4998352;28;20409;-87
2023/05/14 05:12:16;;;;;;;8.10;7.40;;;15.10;99.90;;;;;;4996280;28;20196;-85
2023/05/14 05:14:42;;;;;;;7.90;7.10;;;15.10;99.90;;;;;;4997507;28;20198;-85
2023/05/14 05:17:07;;;;;;;9.93;7.63;;;15.00;99.90;;;;;;4995717;28;20184;-81
2023/05/14 05:19:33;;;;;;;9.80;8.80;;;15.00;99.90;;;;;;4997362;28;20263;-81
2023/05/14 05:21:58;;;;;;;11.50;8.13;;;15.00;99.90;;;;;;4996963;28;20238;-84
2023/05/14 05:24:24;;;;;;;10.53;7.83;;;15.00;99.90;;;;;;4997172;28;20176;-81
2023/05/14 05:26:50;;;;;;;8.67;7.87;;;14.90;99.90;;;;;;4996786;28;20281;-82
2023/05/14 05:29:16;;;;;;;11.17;8.67;;;14.90;99.90;;;;;;4995678;28;20673;-85
2023/05/14 05:31:42;;;;;;;9.20;8.20;;;14.90;99.90;;;;;;4995384;28;20449;-86
2023/05/14 05:34:08;;;;;;;8.50;7.60;;;14.80;99.90;;;;;;4995261;28;20180;-81
2023/05/14 05:36:33;;;;;;;8.23;7.43;;;14.70;99.90;;;;;;4996660;28;20647;-81
2023/05/14 05:38:59;;;;;;;8.33;7.47;;;14.70;99.90;;;;;;4995376;28;20211;-84
2023/05/14 05:41:25;;;;;;;9.00;8.13;;;14.60;99.90;;;;;;4995032;28;20227;-84
2023/05/14 05:43:51;;;;;;;9.77;8.87;;;14.60;99.90;;;;;;4995357;28;20422;-85
2023/05/14 05:46:18;;;;;;;9.30;8.30;;;14.50;99.90;;;;;;4995054;28;20981;-86
2023/05/14 05:48:44;;;;;;;9.47;8.57;;;14.50;99.90;;;;;;4996362;28;20219;-81
2023/05/14 05:51:10;;;;;;;8.80;7.90;;;14.50;99.90;;;;;;4996248;28;20429;-82
2023/05/14 05:53:36;;;;;;;8.33;7.50;;;14.50;99.90;;;;;;4996502;28;20172;-81
2023/05/14 05:56:01;;;;;;;8.93;8.10;;;14.50;99.90;;;;;;5011119;28;20784;-85
2023/05/14 05:58:27;;;;;;;10.00;8.30;;;14.50;99.90;;;;;;4996221;28;20200;-86
2023/05/14 06:00:53;;;;;;;9.10;8.10;;;14.50;99.90;;;;;;4996050;28;20208;-85
2023/05/14 06:03:20;;;;;;;8.80;7.90;;;14.50;99.90;;;;;;4996243;28;20172;-85
2023/05/14 06:05:46;;;;;;;9.60;8.70;;;14.50;99.90;;;;;;4995962;28;20477;-81
2023/05/14 06:08:12;;;;;;;10.07;8.20;;;14.50;99.90;;;;;;4996077;28;20576;-82
2023/05/14 06:10:37;;;;;;;9.40;8.47;;;14.50;99.90;;;;;;4994754;28;20200;-86
2023/05/14 06:13:03;;;;;;;13.43;9.17;;;14.60;99.90;;;;;;4994503;28;20191;-87
2023/05/14 06:15:29;;;;;;;10.70;9.60;;;14.60;99.90;;;;;;4994606;28;20437;-83
2023/05/14 06:17:54;;;;;;;10.80;9.20;;;14.60;99.90;;;;;;4995720;28;20633;-82
2023/05/14 06:20:20;;;;;;;12.67;10.33;;;14.70;99.90;;;;;;4995705;28;20200;-85
2023/05/14 06:22:46;;;;;;;11.37;10.27;;;14.70;99.90;;;;;;4996957;28;20176;-86
2023/05/14 06:25:11;;;;;;;11.13;9.90;;;14.50;99.90;;;;;;4997775;28;20210;-81
2023/05/14 06:27:37;;;;;;;11.13;10.00;;;14.60;99.90;;;;;;4995565;28;20590;-82
2023/05/14 06:30:03;;;;;;;13.70;11.77;;;14.60;99.90;;;;;;4995678;28;20560;-85
2023/05/14 06:32:28;;;;;;;12.03;10.80;;;14.70;99.90;;;;;;5010587;28;20226;-82
2023/05/14 06:34:54;;;;;;;11.70;10.43;;;14.80;99.90;;;;;;5010717;28;20445;-82
2023/05/14 06:37:20;;;;;;;11.53;10.20;;;14.70;99.90;;;;;;4994268;28;20187;-82
2023/05/14 06:39:48;;;;;;;11.40;10.30;;;14.90;99.90;;;;;;5010376;28;20216;-86
2023/05/14 06:42:18;;;;;;;12.20;9.80;;;14.90;99.90;;;;;;4995267;28;20213;-81
2023/05/14 06:44:44;;;;;;;15.87;10.17;;;14.90;99.90;;;;;;4995771;28;20449;-87
2023/05/14 06:47:09;;;;;;;12.37;11.07;;;15.00;99.90;;;;;;5010290;28;20842;-85
2023/05/14 06:49:35;;;;;;;12.00;10.80;;;15.00;99.90;;;;;;4995463;28;20790;-86
2023/05/14 06:52:02;;;;;;;11.07;10.03;;;15.10;99.90;;;;;;5006668;28;20191;-85
2023/05/14 06:54:28;;;;;;;10.90;8.87;;;15.00;99.90;;;;;;4993467;28;20418;-85
2023/05/14 06:56:53;;;;;;;10.53;9.30;;;15.00;99.90;;;;;;4992539;28;20524;-82
2023/05/14 06:59:19;;;;;;;11.67;9.37;;;15.10;99.90;;;;;;4992984;28;20194;-82
2023/05/14 07:01:45;;;;;;;10.67;9.57;;;15.20;99.90;;;;;;4993816;28;20704;-82
2023/05/14 07:04:10;;;;;;;9.80;8.80;;;15.20;99.90;;;;;;4993166;28;20183;-81
2023/05/14 07:06:36;;;;;;;10.43;9.33;;;15.20;99.90;;;;;;4995470;28;20199;-81
2023/05/14 07:09:02;;;;;;;10.80;9.47;;;15.20;99.90;;;;;;4993527;28;20251;-85
2023/05/14 07:11:28;;;;;;;10.50;9.50;;;15.10;99.90;;;;;;4994455;28;20598;-86
2023/05/14 07:13:53;;;;;;;13.80;10.87;;;15.10;99.90;;;;;;4991483;28;20176;-85
2023/05/14 07:16:19;;;;;;;11.60;10.50;;;15.20;99.90;;;;;;4991712;28;20201;-81
2023/05/14 07:18:46;;;;;;;14.10;10.50;;;15.30;99.90;;;;;;4991479;28;20186;-86
2023/05/14 07:21:11;;;;;;;12.37;10.80;;;15.40;99.90;;;;;;4992676;28;20200;-82
2023/05/14 07:23:37;;;;;;;12.33;9.90;;;15.40;99.90;;;;;;4992863;28;20417;-85
2023/05/14 07:26:05;;;;;;;11.73;10.33;;;15.50;99.90;;;;;;4991199;28;20293;-81
2023/05/14 07:28:31;;;;;;;12.17;10.90;;;15.40;99.90;;;;;;4993100;28;20223;-82
2023/05/14 07:30:57;;;;;;;12.97;10.37;;;15.50;99.90;;;;;;4993219;28;20449;-85
2023/05/14 07:33:23;;;;;;;11.87;10.63;;;15.40;99.90;;;;;;4994693;28;20429;-82
2023/05/14 07:35:49;;;;;;;10.57;9.57;;;15.40;99.90;;;;;;4993220;28;20434;-86
2023/05/14 07:38:15;;;;;;;10.83;9.83;;;15.40;99.90;;;;;;4994472;28;20413;-85
2023/05/14 07:40:42;;;;;;;11.77;10.57;;;15.40;99.90;;;;;;4993126;28;20464;-82
2023/05/14 07:43:08;;;;;;;10.37;9.37;;;15.40;99.90;;;;;;4993110;28;20432;-81
2023/05/14 07:45:36;;;;;;;10.67;9.67;;;15.40;99.90;;;;;;4994309;28;20453;-81
2023/05/14 07:48:02;;;;;;;9.60;8.67;;;15.40;99.90;;;;;;4993677;28;20516;-82
2023/05/14 07:50:28;;;;;;;11.37;10.17;;;15.40;99.90;;;;;;4995257;28;20433;-85
2023/05/14 07:52:54;;;;;;;11.20;10.10;;;15.40;99.90;;;;;;4993051;28;20492;-86
2023/05/14 07:55:19;;;;;;;10.90;9.90;;;15.30;99.90;;;;;;4993058;28;20482;-82
2023/05/14 07:57:45;;;;;;;10.73;9.60;;;15.30;99.90;;;;;;4992825;28;20579;-85
2023/05/14 08:00:12;;;;;;;12.40;9.43;;;15.20;99.90;;;;;;4992935;28;20572;-85
2023/05/14 08:02:37;;;;;;;10.20;8.87;;;15.20;99.90;;;;;;4992880;28;20602;-82
2023/05/14 08:05:03;;;;;;;10.60;8.33;;;15.00;99.90;;;;;;4995113;28;20509;-85
2023/05/14 08:07:29;;;;;;;11.50;8.43;;;15.00;99.90;;;;;;4998243;28;20211;-84
2023/05/14 08:09:55;;;;;;;13.83;9.80;;;14.90;99.90;;;;;;4997054;28;20243;-82
2023/05/14 08:12:21;;;;;;;10.07;8.53;;;14.90;99.90;;;;;;4998248;28;20410;-82
2023/05/14 08:14:46;;;;;;;10.13;8.20;;;14.90;99.90;;;;;;4998530;28;20429;-81
2023/05/14 08:17:12;;;;;;;9.80;8.73;;;14.90;99.90;;;;;;4998094;28;20237;-84
2023/05/14 08:19:38;;;;;;;10.37;9.07;;;14.90;99.90;;;;;;4996919;28;20649;-86
2023/05/14 08:22:04;;;;;;;9.70;8.00;;;14.90;99.90;;;;;;4994937;28;20198;-84
2023/05/14 08:24:30;;;;;;;9.53;8.63;;;14.90;99.90;;;;;;4997808;28;20544;-82
2023/05/14 08:26:55;;;;;;;11.70;8.77;;;15.00;99.90;;;;;;4996504;28;20538;-81
2023/05/14 08:29:21;;;;;;;12.93;10.17;;;15.00;99.90;;;;;;4997473;28;20218;-85
2023/05/14 08:31:50;;;;;;;10.33;9.20;;;15.00;99.90;;;;;;4996285;28;20759;-82
2023/05/14 08:34:16;;;;;;;11.70;9.33;;;15.00;99.90;;;;;;4996522;28;20183;-81
2023/05/14 08:36:41;;;;;;;10.73;8.90;;;15.00;99.90;;;;;;4996345;28;20441;-82
2023/05/14 08:39:08;;;;;;;11.30;9.13;;;15.00;99.90;;;;;;4997981;28;20413;-86
2023/05/14 08:41:34;;;;;;;11.30;9.70;;;15.00;99.90;;;;;;4996318;28;20299;-85
2023/05/14 08:44:09;;;;;;;12.13;9.37;;;14.90;99.90;;;;;;4996480;28;20957;-86
2023/05/14 08:46:37;;;;;;;12.30;10.17;;;15.00;99.90;;;;;;4996366;28;20961;-81
2023/05/14 08:49:12;;;;;;;11.40;9.90;;;15.00;99.90;;;;;;4998786;28;20495;-86
2023/05/14 08:51:39;;;;;;;12.03;9.10;;;15.00;99.90;;;;;;4997782;28;20448;-86
2023/05/14 08:54:05;;;;;;;11.00;9.90;;;15.00;99.90;;;;;;4998799;28;20903;-81
2023/05/14 08:56:32;;;;;;;9.93;8.90;;;15.00;99.90;;;;;;4998507;28;20457;-81
2023/05/14 08:58:58;;;;;;;13.00;9.60;;;15.00;99.90;;;;;;4997800;28;20512;-82
2023/05/14 09:01:24;;;;;;;13.80;10.77;;;14.90;99.90;;;;;;4997507;28;20496;-82
2023/05/14 09:03:52;;;;;;;12.53;10.63;;;14.90;99.90;;;;;;4995904;28;20429;-81
2023/05/14 09:06:19;;;;;;;12.90;10.17;;;14.90;99.90;;;;;;4995983;28;20488;-82
2023/05/14 09:08:45;;;;;;;11.23;8.77;;;14.90;99.90;;;;;;4997553;28;20484;-81
2023/05/14 09:11:11;;;;;;;10.70;9.17;;;15.00;99.90;;;;;;4979408;28;20465;-85
2023/05/14 09:13:38;;;;;;;11.33;9.47;;;15.00;99.90;;;;;;4977865;28;20430;-85
2023/05/14 09:16:04;;;;;;;12.73;10.00;;;15.00;99.90;;;;;;4976987;28;20207;-85
2023/05/14 09:18:30;;;;;;;11.40;10.20;;;15.00;99.90;;;;;;4976344;28;20434;-86
2023/05/14 09:20:56;;;;;;;11.27;10.10;;;15.00;99.90;;;;;;4977400;28;20434;-85
2023/05/14 09:23:25;;;;;;;11.50;10.30;;;14.90;99.90;;;;;;4976205;28;20575;-81
2023/05/14 09:25:51;;;;;;;13.47;10.13;;;14.90;99.90;;;;;;4977346;28;20951;-85
2023/05/14 09:28:18;;;;;;;10.67;9.57;;;14.90;99.90;;;;;;4976027;28;20541;-85
2023/05/14 09:30:50;;;;;;;12.93;10.77;;;14.90;99.90;;;;;;4977362;28;20476;-85
2023/05/14 09:33:27;;;;;;;12.20;9.83;;;15.00;99.90;;;;;;4977422;28;20513;-85
2023/05/14 09:35:58;;;;;;;14.23;11.80;;;15.00;99.90;;;;;;4977215;28;20422;-85
2023/05/14 09:38:31;;;;;;;13.50;11.37;;;15.00;99.90;;;;;;4977321;28;20422;-81
2023/05/14 09:40:58;;;;;;;11.50;10.30;;;15.00;99.90;;;;;;4977082;28;20422;-85
2023/05/14 09:43:24;;;;;;;13.30;10.80;;;15.00;99.90;;;;;;4977399;28;20979;-81
2023/05/14 09:45:51;;;;;;;13.87;11.50;;;15.10;99.90;;;;;;4975728;28;20442;-81
2023/05/14 09:48:17;;;;;;;16.60;13.30;;;15.10;99.90;;;;;;4977050;28;20478;-85
2023/05/14 09:50:44;;;;;;;18.03;13.33;;;15.10;99.90;;;;;;4976887;28;20527;-85
2023/05/14 09:53:10;;;;;;;17.43;14.17;;;15.10;99.90;;;;;;4977074;28;20414;-85
2023/05/14 09:55:37;;;;;;;23.97;14.23;;;15.10;99.90;;;;;;4976832;28;20935;-81
2023/05/14 09:58:03;;;;;;;22.37;14.53;;;15.00;99.90;;;;;;4976724;28;20773;-81
2023/05/14 10:00:32;;;;;;;15.80;12.50;;;15.10;99.90;;;;;;4975443;28;20446;-82
2023/05/14 10:03:01;;;;;;;16.63;11.60;;;15.10;99.90;;;;;;4976825;28;20414;-86
2023/05/14 10:05:28;;;;;;;15.43;12.40;;;15.10;99.90;;;;;;4975074;28;20488;-81
2023/05/14 10:07:57;;;;;;;14.83;12.70;;;15.20;99.90;;;;;;4977435;28;20466;-81
2023/05/14 10:10:27;;;;;;;13.50;11.57;;;15.10;99.90;;;;;;4976157;28;20456;-81
2023/05/14 10:12:57;;;;;;;15.17;11.90;;;15.20;99.90;;;;;;4975404;28;20421;-81
2023/05/14 10:15:35;;;;;;;14.87;13.00;;;15.10;99.90;;;;;;4975150;28;20501;-85
2023/05/14 10:18:06;;;;;;;14.03;12.03;;;15.00;99.90;;;;;;4975257;28;20414;-81
2023/05/14 10:20:33;;;;;;;17.87;13.27;;;15.10;99.90;;;;;;4976459;28;20430;-81
2023/05/14 10:22:59;;;;;;;15.93;13.53;;;15.10;99.90;;;;;;4975134;28;20864;-82
2023/05/14 10:25:25;;;;;;;16.50;13.53;;;15.10;99.90;;;;;;4975393;28;20442;-81
2023/05/14 10:27:52;;;;;;;15.27;12.97;;;15.20;99.90;;;;;;4974034;28;20466;-84
2023/05/14 10:30:21;;;;;;;14.00;12.07;;;15.20;99.90;;;;;;4976183;28;20473;-86
2023/05/14 10:32:47;;;;;;;15.00;12.30;;;15.20;99.90;;;;;;4976054;28;20990;-82
2023/05/14 10:35:20;;;;;;;12.40;11.10;;;15.20;99.90;;;;;;4974815;28;20451;-82
2023/05/14 10:37:50;;;;;;;14.00;12.23;;;15.20;99.90;;;;;;4974867;28;20164;-83
2023/05/14 10:40:17;;;;;;;16.43;11.70;;;15.20;99.90;;;;;;4974754;28;20819;-81
2023/05/14 10:42:45;;;;;;;12.93;10.67;;;15.20;99.90;;;;;;4974640;28;20430;-82
2023/05/14 10:45:13;;;;;;;13.67;10.87;;;15.20;99.90;;;;;;4975887;28;20430;-85
2023/05/14 10:47:43;;;;;;;13.37;10.83;;;15.30;99.90;;;;;;4974536;28;20419;-86
2023/05/14 10:50:11;;;;;;;13.87;11.43;;;15.20;99.90;;;;;;4975853;28;20797;-86
2023/05/14 10:52:39;;;;;;;11.20;10.00;;;15.20;99.90;;;;;;4975756;28;20465;-82
2023/05/14 10:55:09;;;;;;;11.43;10.17;;;15.30;99.90;;;;;;4974444;28;20489;-86
2023/05/14 10:57:39;;;;;;;11.90;9.67;;;15.20;99.90;;;;;;4975808;28;20382;-82
2023/05/14 11:00:07;;;;;;;14.80;10.90;;;15.20;99.90;;;;;;4974311;28;20858;-86
2023/05/14 11:02:41;;;;;;;13.33;10.00;;;15.20;99.90;;;;;;4974391;28;20457;-82
2023/05/14 11:05:16;;;;;;;11.63;10.43;;;15.30;99.90;;;;;;4974159;28;20504;-81
2023/05/14 11:07:47;;;;;;;10.90;9.73;;;15.30;99.90;;;;;;4974232;28;20449;-84
2023/05/14 11:10:14;;;;;;;10.07;9.07;;;15.20;99.90;;;;;;4987806;28;20456;-85
2023/05/14 11:12:47;;;;;;;13.07;9.33;;;15.20;99.90;;;;;;4994817;28;20445;-85
2023/05/14 11:15:15;;;;;;;10.83;9.80;;;15.20;99.90;;;;;;5009989;28;20449;-81
2023/05/14 11:17:42;;;;;;;11.10;9.97;;;15.20;99.90;;;;;;4993463;28;20417;-82
2023/05/14 11:20:09;;;;;;;11.80;9.97;;;15.30;99.90;;;;;;5009727;28;20445;-86
2023/05/14 11:22:37;;;;;;;10.87;9.47;;;15.30;99.90;;;;;;5009713;28;20488;-85
2023/05/14 11:25:03;;;;;;;12.17;10.70;;;15.30;99.90;;;;;;5009723;28;20445;-81
2023/05/14 11:27:31;;;;;;;12.93;10.73;;;15.30;99.90;;;;;;4993324;28;20409;-81
2023/05/14 11:29:56;;;;;;;10.63;9.50;;;15.30;99.90;;;;;;5009948;28;20523;-81
2023/05/14 11:32:22;;;;;;;14.90;8.63;;;15.40;99.90;;;;;;5009670;28;20429;-85
2023/05/14 11:34:48;;;;;;;10.00;9.00;;;15.40;99.90;;;;;;4995024;28;20926;-85
2023/05/14 11:37:15;;;;;;;12.17;9.50;;;15.40;99.90;;;;;;4996138;28;20481;-86
2023/05/14 11:39:52;;;;;;;10.10;8.20;;;15.50;99.90;;;;;;4994937;28;20171;-85
2023/05/14 11:42:18;;;;;;;12.10;9.50;;;15.50;99.90;;;;;;5009554;28;20432;-82
2023/05/14 11:44:50;;;;;;;10.13;9.13;;;15.50;99.90;;;;;;4994885;28;20422;-85
2023/05/14 11:47:17;;;;;;;10.10;9.10;;;15.50;99.90;;;;;;5009548;28;20946;-81
2023/05/14 11:49:44;;;;;;;15.47;9.60;;;15.60;99.90;;;;;;4994799;28;20476;-86
2023/05/14 11:52:12;;;;;;;12.47;9.20;;;15.60;99.90;;;;;;4994410;28;20424;-85
2023/05/14 11:54:39;;;;;;;9.53;8.57;;;15.60;99.90;;;;;;4994671;28;20432;-85
2023/05/14 11:57:10;;;;;;;11.97;10.67;;;15.70;99.90;;;;;;5009356;28;20945;-81
2023/05/14 11:59:36;;;;;;;11.70;9.40;;;15.70;99.90;;;;;;5009268;28;20533;-81
2023/05/14 12:02:03;;;;;;;11.30;9.53;;;15.70;99.90;;;;;;4994272;28;20835;-85
2023/05/14 12:04:30;;;;;;;9.97;9.00;;;15.80;99.90;;;;;;4994491;28;20413;-82
2023/05/14 12:06:57;;;;;;;9.90;8.70;;;15.80;99.90;;;;;;4992884;28;20446;-85
2023/05/14 12:09:23;;;;;;;12.30;8.83;;;15.80;99.90;;;;;;4994392;28;20469;-82
2023/05/14 12:11:50;;;;;;;9.50;8.60;;;15.80;99.90;;;;;;4994096;28;20491;-82
2023/05/14 12:14:23;;;;;;;11.73;8.30;;;15.90;99.90;;;;;;4993041;28;20233;-84
2023/05/14 12:16:50;;;;;;;11.10;8.57;;;16.00;99.90;;;;;;4994087;28;20440;-81
2023/05/14 12:19:18;;;;;;;8.63;7.80;;;16.00;99.90;;;;;;4994349;28;20416;-85
2023/05/14 12:21:45;;;;;;;8.90;8.10;;;16.00;99.90;;;;;;4992758;28;20457;-85
2023/05/14 12:24:13;;;;;;;8.97;8.07;;;16.00;99.90;;;;;;5009250;28;20448;-81
2023/05/14 12:26:42;;;;;;;9.63;8.30;;;16.10;99.90;;;;;;5009202;28;20532;-82
2023/05/14 12:29:12;;;;;;;9.93;8.60;;;16.00;99.90;;;;;;4994307;28;20473;-86
2023/05/14 12:31:45;;;;;;;9.47;8.40;;;16.00;99.90;;;;;;5008886;28;20441;-85